< Typhoon 202102 2021 Season Typhoon 202104 >
Typhoon 202103 (CHOI-WAN)
General InformationTrack Information on Google MapsDetailed Wind InformationForecast History on Google MapsAccess Analytics MapList of All Images || NewsDisaster Info.WeblogTrackbackTyphoon FrontTwiphoonTyphoon Now!Typhoon ImaginationJMA Disaster Info. XMLResourceGoogle EarthGE AnimationAtom FeedGeoJSON
Detalied Best Track (Time Zone = UTC)
Year Month Day Hour Lat. Long. Pressure (hPa) Wind (kt) Class Image Chart
2021 5 29 00 6.4 137.1 1004 0 2 Image Chart
2021 5 29 06 6.0 135.8 1004 0 2 Image Chart
2021 5 29 12 5.8 135.1 1004 0 2 Image Chart
2021 5 29 18 5.8 134.3 1004 0 2 Image Chart
2021 5 30 00 5.9 133.5 1004 0 2 Image Chart
2021 5 30 06 6.0 132.9 1002 0 2 Image Chart
2021 5 30 12 6.6 132.5 1002 0 2 Image Chart
2021 5 30 18 7.2 131.6 1000 35 3 Image Chart
2021 5 31 00 8.1 131.1 1000 35 3 Image Chart
2021 5 31 06 9.1 130.0 1000 35 3 Image Chart
2021 5 31 12 9.5 129.1 1000 35 3 Image Chart
2021 5 31 18 9.7 128.3 998 40 3 Image Chart
2021 6 1 00 10.0 127.3 998 40 3 Image Chart
2021 6 1 06 11.1 126.8 998 35 3 Image Chart
2021 6 1 12 11.7 125.6 998 35 3 Image Chart
2021 6 1 18 11.8 123.6 1000 35 3 Image Chart
2021 6 2 00 12.6 122.3 1000 35 3 Image Chart
2021 6 2 06 13.2 121.7 1000 35 3 Image Chart
2021 6 2 12 13.5 120.7 1000 35 3 Image Chart
2021 6 2 18 14.9 119.5 1000 35 3 Image Chart
2021 6 3 00 16.7 118.9 998 40 3 Image Chart
2021 6 3 06 17.6 118.0 998 40 3 Image Chart
2021 6 3 12 18.6 118.2 998 40 3 Image Chart
2021 6 3 18 19.5 118.4 1000 40 3 Image Chart
2021 6 4 00 20.2 118.6 1000 40 3 Image Chart
2021 6 4 06 20.9 119.5 1002 35 3 Image Chart
2021 6 4 12 21.8 121.1 1002 35 3 Image Chart
2021 6 4 18 23.1 122.5 1002 35 3 Image Chart
2021 6 5 00 24.7 123.7 1002 35 3 Image Chart
2021 6 5 06 26.9 126.2 1000 0 6 Image Chart
2021 6 5 12 28.3 128.9 1002 0 6 Image Chart
2021 6 5 18 29.8 131.7 1004 0 6 Image Chart
2021 6 6 00 32.2 136.3 1008 0 6 Image Chart
Japan Meteorological Agency Best Track Data | Correction Date : 2021-08-26
< Typhoon 202102 2021 Season Typhoon 202104 >

Help